Far Sleipner — LASG7 — position and weather

sailwx.info

Track history (hours):
 
Tides and Currents Weather Stations Pressure Air Temp Water Temp Dewpoint Dewpoint Depression Visibility Wind Speed Wind Dir Waves Ship Positions

Far Sleipner

Last reported at 2018-Feb-17 23:00 UTC. Time now 2018-Feb-17 23:16 UTC.
Position S 05°23' E 011°27'.

Length 143 m; draft 6.8 m.

Type: Ship (hazmat cat A). MMSI: 257794000.

Date/timePositionNaut miles runAvg speedWind from/ knotsBaromVisibWave heightAir tempDewpointWater temp
2018-Feb-17 23:00S 05°23' E 011°27'0 0.0
2018-Feb-17 22:25S 05°23' E 011°27'0 0.0
2018-Feb-17 22:00S 05°23' E 011°27'0 0.0
2018-Feb-17 21:30S 05°23' E 011°27'0 0.0
2018-Feb-17 21:00S 05°23' E 011°27'0 0.0
2018-Feb-17 20:30S 05°23' E 011°27'0 0.0
2018-Feb-17 20:00S 05°23' E 011°27'0 0.0
2018-Feb-17 19:30S 05°23' E 011°27'0 0.0
2018-Feb-17 19:00S 05°23' E 011°27'0 0.0
2018-Feb-17 18:30S 05°23' E 011°27'0 0.0
2018-Feb-17 18:01S 05°23' E 011°27'0 0.0
2018-Feb-17 17:21S 05°23' E 011°27'0 0.0
2018-Feb-17 17:00S 05°23' E 011°27'0 0.0
2018-Feb-17 16:17S 05°23' E 011°27'0 0.0
2018-Feb-17 16:00S 05°23' E 011°27'0 0.0
2018-Feb-17 15:30S 05°23' E 011°27'0 0.2
2018-Feb-17 15:01S 05°23' E 011°26'0 0.3
2018-Feb-17 14:30S 05°23' E 011°26'0 0.4
2018-Feb-17 13:58S 05°23' E 011°26'0 0.5
2018-Feb-17 13:29S 05°23' E 011°26'0 0.4
2018-Feb-17 12:59S 05°23' E 011°26'0 0.1
2018-Feb-17 12:30S 05°23' E 011°26'0 0.0
2018-Feb-17 12:00S 05°23' E 011°26'0 0.0
2018-Feb-17 11:28S 05°23' E 011°26'0 0.0
2018-Feb-17 10:58S 05°23' E 011°26'0 0.0
2018-Feb-17 10:29S 05°23' E 011°26'0 0.0
2018-Feb-17 10:00S 05°23' E 011°26'0 0.0
2018-Feb-17 09:30S 05°23' E 011°26'0 0.0
2018-Feb-17 09:00S 05°23' E 011°26'0 0.0
2018-Feb-17 08:28S 05°23' E 011°26'0 0.0
2018-Feb-17 07:59S 05°23' E 011°26'0 0.0
2018-Feb-17 07:29S 05°23' E 011°26'0 0.1
2018-Feb-17 07:00S 05°23' E 011°26'0 1.0
2018-Feb-17 06:30S 05°23' E 011°26'1 1.3
2018-Feb-17 06:00S 05°23' E 011°26'0 0.4
2018-Feb-17 05:28S 05°23' E 011°26'0 0.0
2018-Feb-17 05:00S 05°23' E 011°26'0 0.0
2018-Feb-17 04:30S 05°23' E 011°26'0 0.0
2018-Feb-17 04:00S 05°23' E 011°26'0 0.0
2018-Feb-17 03:29S 05°23' E 011°26'0 0.1
2018-Feb-17 03:00S 05°23' E 011°26'0 0.0
2018-Feb-17 02:30S 05°23' E 011°26'0 0.0
2018-Feb-17 02:00S 05°23' E 011°26'0 0.1
2018-Feb-17 01:30S 05°23' E 011°26'5 9.0
2018-Feb-17 01:00S 05°20' E 011°23'611.5
2018-Feb-17 00:30S 05°17' E 011°18'5 9.2
2018-Feb-17 00:00S 05°15' E 011°14'0 0.0
2018-Feb-16 23:29S 05°15' E 011°14'0 0.0
2018-Feb-16 23:00S 05°15' E 011°14'0 0.0
2018-Feb-16 22:29S 05°15' E 011°14'0 0.0
2018-Feb-16 22:00S 05°15' E 011°14'0 0.0
2018-Feb-16 21:18S 05°15' E 011°14'0 0.0
2018-Feb-16 20:59S 05°15' E 011°14'0 0.0
2018-Feb-16 20:26S 05°15' E 011°14'0 0.0
2018-Feb-16 19:49S 05°15' E 011°14'0 0.0
2018-Feb-16 19:30S 05°15' E 011°14'0 0.0
2018-Feb-16 19:00S 05°15' E 011°14'0 0.0
2018-Feb-16 18:30S 05°15' E 011°14'0 0.0
2018-Feb-16 18:00S 05°15' E 011°14'0 0.0
2018-Feb-16 17:30S 05°15' E 011°14'0 0.0
2018-Feb-16 17:00S 05°15' E 011°14'0 0.6
2018-Feb-16 16:28S 05°14' E 011°14'612.9
2018-Feb-16 16:00S 05°11' E 011°09'713.3
2018-Feb-16 15:30S 05°08' E 011°03'713.3
2018-Feb-16 15:00S 05°05' E 010°57'31 0.8
2018-Feb-15 02:42S 04°55' E 011°26'211.1
2018-Feb-15 02:30S 04°57' E 011°26'611.2
2018-Feb-15 02:00S 05°03' E 011°26'611.2
2018-Feb-15 01:30S 05°09' E 011°26'611.1
2018-Feb-15 00:58S 05°15' E 011°26'511.0
2018-Feb-15 00:30S 05°20' E 011°25'2 3.6
2018-Feb-14 23:58S 05°21' E 011°24'0 0.0
2018-Feb-14 23:28S 05°21' E 011°24'0 0.1
2018-Feb-14 23:00S 05°21' E 011°24'0 0.3
2018-Feb-14 22:29S 05°21' E 011°24'0 0.1
2018-Feb-14 22:00S 05°21' E 011°24'0 0.1
2018-Feb-14 21:30S 05°21' E 011°24'0 0.0
2018-Feb-14 21:00S 05°21' E 011°24'0 0.2
2018-Feb-14 20:30S 05°21' E 011°24'0 0.2
2018-Feb-14 20:00S 05°21' E 011°24'0 0.0
2018-Feb-14 19:30S 05°21' E 011°24'0 0.8
2018-Feb-14 19:00S 05°21' E 011°24'611.1
2018-Feb-14 18:28S 05°16' E 011°21'2 3.4
2018-Feb-14 18:00S 05°14' E 011°20'0 0.0
2018-Feb-14 17:30S 05°14' E 011°20'0 0.0
2018-Feb-14 17:00S 05°14' E 011°20'0 0.0
2018-Feb-14 16:30S 05°14' E 011°20'0 0.0
2018-Feb-14 15:58S 05°14' E 011°20'0 0.0
2018-Feb-14 15:29S 05°14' E 011°20'0 0.1
2018-Feb-14 15:00S 05°14' E 011°20'0 0.3
2018-Feb-14 14:30S 05°14' E 011°20'0 0.0
2018-Feb-14 13:58S 05°14' E 011°20'0 0.0
2018-Feb-14 13:30S 05°14' E 011°20'0 0.0
2018-Feb-14 13:00S 05°14' E 011°20'0 0.0
2018-Feb-14 12:30S 05°14' E 011°20'0 0.0
2018-Feb-14 12:00S 05°14' E 011°20'0 0.0
2018-Feb-14 11:30S 05°14' E 011°20'0 0.0
2018-Feb-14 11:00S 05°14' E 011°20'0 0.0
2018-Feb-14 10:30S 05°14' E 011°20'0 0.1
2018-Feb-14 10:00S 05°14' E 011°20'0 0.1
2018-Feb-14 09:30S 05°14' E 011°20'0 0.3
2018-Feb-14 09:00S 05°14' E 011°20'0 0.0
2018-Feb-14 08:31S 05°14' E 011°20'0 0.2
2018-Feb-14 08:00S 05°14' E 011°20'0 0.2
2018-Feb-14 07:30S 05°14' E 011°20'0 0.0
2018-Feb-14 07:00S 05°14' E 011°20'0 0.2
2018-Feb-14 06:30S 05°14' E 011°20'0 0.1
2018-Feb-14 06:00S 05°14' E 011°20'0 0.0
2018-Feb-14 05:30S 05°14' E 011°20'0 0.3
2018-Feb-14 05:00S 05°14' E 011°20'0 0.0
2018-Feb-14 04:30S 05°14' E 011°20'0 0.0
2018-Feb-14 04:00S 05°14' E 011°20'0 0.2
2018-Feb-14 03:30S 05°14' E 011°20'0 0.1
2018-Feb-14 03:00S 05°14' E 011°20'0 0.0
2018-Feb-14 02:30S 05°14' E 011°20'0 0.0
2018-Feb-14 02:00S 05°14' E 011°20'0 0.3
2018-Feb-14 01:29S 05°14' E 011°20'0 0.0
2018-Feb-14 00:58S 05°14' E 011°20'0 0.3
2018-Feb-14 00:29S 05°14' E 011°20'0 0.0
2018-Feb-14 00:00S 05°14' E 011°20'0 0.0
2018-Feb-13 23:30S 05°14' E 011°20'0 0.3
2018-Feb-13 22:59S 05°14' E 011°20'0 0.0
2018-Feb-13 22:26S 05°14' E 011°20'0 0.3
2018-Feb-13 22:00S 05°14' E 011°20'0 0.0
2018-Feb-13 21:30S 05°14' E 011°20'0 0.1
2018-Feb-13 20:59S 05°14' E 011°20'0 0.0
2018-Feb-13 20:29S 05°14' E 011°20'0 0.0
2018-Feb-13 19:59S 05°14' E 011°20'0 0.0
2018-Feb-13 19:30S 05°14' E 011°20'0 0.0
2018-Feb-13 18:59S 05°14' E 011°20'0 0.0
2018-Feb-13 18:30S 05°14' E 011°20'0 0.0
2018-Feb-13 18:00S 05°14' E 011°20'0 0.0
2018-Feb-13 17:29S 05°14' E 011°20'0 0.0
2018-Feb-13 16:59S 05°14' E 011°20'0 0.3
2018-Feb-13 16:30S 05°14' E 011°20'0 0.0
2018-Feb-13 16:00S 05°14' E 011°20'0 0.0
2018-Feb-13 15:29S 05°14' E 011°20'0 0.0
2018-Feb-13 15:00S 05°14' E 011°20'0 0.3
2018-Feb-13 14:30S 05°15' E 011°20'611.8
2018-Feb-13 14:00S 05°20' E 011°23'2 3.6
2018-Feb-13 13:30S 05°21' E 011°24'0 0.0
2018-Feb-13 13:00S 05°21' E 011°24'0 0.3
2018-Feb-13 12:28S 05°21' E 011°24'0 0.2
2018-Feb-13 11:55S 05°21' E 011°24'0 0.0
2018-Feb-13 11:30S 05°21' E 011°24'0 0.0
2018-Feb-13 11:00S 05°21' E 011°24'0 0.0
2018-Feb-13 10:30S 05°21' E 011°24'0 0.0
2018-Feb-13 10:00S 05°21' E 011°24'0 0.0
2018-Feb-13 09:30S 05°21' E 011°24'0 0.0
2018-Feb-13 09:00S 05°21' E 011°24'0 0.0
2018-Feb-13 08:30S 05°21' E 011°24'0 0.0
2018-Feb-13 08:00S 05°21' E 011°24'0 0.0
2018-Feb-13 07:29S 05°21' E 011°24'0 0.0
2018-Feb-13 07:00S 05°21' E 011°24'0 0.0
2018-Feb-13 06:31S 05°21' E 011°24'0 0.0
2018-Feb-13 06:00S 05°21' E 011°24'0 0.0
2018-Feb-13 05:30S 05°21' E 011°24'0 0.0
2018-Feb-13 05:00S 05°21' E 011°24'0 0.0
2018-Feb-13 04:30S 05°21' E 011°24'0 0.0
2018-Feb-13 04:00S 05°21' E 011°24'0 0.7
2018-Feb-13 03:30S 05°21' E 011°24'2 4.0
2018-Feb-13 03:00S 05°22' E 011°26'1 1.2
2018-Feb-13 02:28S 05°23' E 011°26'0 0.0
2018-Feb-13 01:57S 05°23' E 011°26'0 0.1
2018-Feb-13 01:30S 05°23' E 011°26'0 0.0
2018-Feb-13 00:58S 05°23' E 011°26'0 0.0
2018-Feb-13 00:30S 05°23' E 011°26'0 0.3
2018-Feb-13 00:00S 05°23' E 011°26'2 2.9
2018-Feb-12 23:28S 05°22' E 011°25'1 2.5
2018-Feb-12 22:59S 05°21' E 011°24'0 0.0
2018-Feb-12 22:30S 05°21' E 011°24'0 0.0
2018-Feb-12 22:00S 05°21' E 011°24'0 0.4
2018-Feb-12 21:30S 05°21' E 011°24'0 0.0
2018-Feb-12 21:00S 05°21' E 011°24'0 0.3
2018-Feb-12 20:30S 05°21' E 011°24'0 0.1
2018-Feb-12 20:00S 05°21' E 011°24'0 0.0
2018-Feb-12 19:30S 05°21' E 011°24'0 0.0
2018-Feb-12 19:00S 05°21' E 011°24'0 0.0
2018-Feb-12 18:30S 05°21' E 011°24'0 0.0
2018-Feb-12 18:00S 05°21' E 011°24'0 0.0
2018-Feb-12 17:30S 05°21' E 011°24'0 0.0
2018-Feb-12 17:00S 05°21' E 011°24'0 0.0
2018-Feb-12 16:30S 05°21' E 011°24'0 0.0
2018-Feb-12 16:00S 05°21' E 011°24'0 0.0
2018-Feb-12 15:30S 05°21' E 011°24'0 0.0
2018-Feb-12 15:00S 05°21' E 011°24'0 0.0
2018-Feb-12 14:30S 05°21' E 011°24'0 0.0
2018-Feb-12 13:58S 05°21' E 011°24'0 0.0
2018-Feb-12 13:28S 05°21' E 011°24'0 0.0
2018-Feb-12 13:00S 05°21' E 011°24'0 0.0
2018-Feb-12 12:30S 05°21' E 011°24'0 0.1
2018-Feb-12 11:59S 05°21' E 011°24'0 0.3
2018-Feb-12 11:29S 05°21' E 011°24'0 0.1
2018-Feb-12 11:00S 05°21' E 011°24'0 0.0
2018-Feb-12 10:30S 05°21' E 011°24'0 0.4
2018-Feb-12 10:00S 05°21' E 011°24'0 0.0
2018-Feb-12 09:30S 05°21' E 011°24'0 0.0
2018-Feb-12 09:00S 05°21' E 011°24'0 0.0
2018-Feb-12 08:30S 05°21' E 011°24'0 0.0
2018-Feb-12 08:00S 05°21' E 011°24'0 0.0
2018-Feb-12 07:29S 05°21' E 011°24'0 0.0
2018-Feb-12 07:00S 05°21' E 011°24'0 0.0
2018-Feb-12 06:30S 05°21' E 011°24'0 0.0
2018-Feb-12 06:00S 05°21' E 011°24'0 0.0
2018-Feb-12 05:30S 05°21' E 011°24'0 0.0
2018-Feb-12 05:00S 05°21' E 011°24'2 3.1
2018-Feb-12 04:30S 05°22' E 011°25'2 3.1
2018-Feb-12 04:00S 05°23' E 011°26'0 0.3
2018-Feb-12 03:22S 05°23' E 011°27'0 0.1
2018-Feb-12 03:00S 05°23' E 011°27'0 0.3
2018-Feb-12 02:30S 05°23' E 011°26'0 0.0
2018-Feb-12 02:00S 05°23' E 011°26'0 0.0
2018-Feb-12 01:30S 05°23' E 011°26'0 0.0
2018-Feb-12 01:00S 05°23' E 011°26'0 0.0
2018-Feb-12 00:30S 05°23' E 011°26'0 0.0
2018-Feb-12 00:00S 05°23' E 011°26'0 0.0
2018-Feb-11 23:30S 05°23' E 011°26'0 0.1
2018-Feb-11 23:00S 05°23' E 011°26'0 0.0
2018-Feb-11 22:30S 05°23' E 011°26'0 0.2
2018-Feb-11 22:00S 05°23' E 011°26'0 0.8
2018-Feb-11 21:28S 05°23' E 011°26'0 0.2
2018-Feb-11 20:59S 05°23' E 011°27'0 0.0
2018-Feb-11 20:30S 05°23' E 011°27'0 0.2
2018-Feb-11 20:00S 05°23' E 011°26'0 0.1
2018-Feb-11 19:30S 05°23' E 011°26'1 1.7
2018-Feb-11 19:00S 05°23' E 011°26'2 4.1
2018-Feb-11 18:30S 05°21' E 011°24'0 0.5
2018-Feb-11 18:00S 05°21' E 011°24'0 0.0
2018-Feb-11 17:30S 05°21' E 011°24'0 0.0
2018-Feb-11 17:00S 05°21' E 011°24'0 0.0
2018-Feb-11 16:30S 05°21' E 011°24'0 0.0
2018-Feb-11 16:00S 05°21' E 011°24'0 0.0
2018-Feb-11 15:30S 05°21' E 011°24'0 0.0
2018-Feb-11 14:59S 05°21' E 011°24'0 0.0
2018-Feb-11 14:30S 05°21' E 011°24'0 0.0
2018-Feb-11 14:00S 05°21' E 011°24'0 0.0
2018-Feb-11 13:30S 05°21' E 011°24'0 0.0
2018-Feb-11 13:00S 05°21' E 011°24'0 0.0
2018-Feb-11 12:30S 05°21' E 011°24'0 0.0
2018-Feb-11 12:00S 05°21' E 011°24'0 0.0
2018-Feb-11 11:30S 05°21' E 011°24'0 0.0
2018-Feb-11 11:00S 05°21' E 011°24'0 0.0
2018-Feb-11 10:28S 05°21' E 011°24'0 0.0
2018-Feb-11 09:58S 05°21' E 011°24'0 0.1
2018-Feb-11 09:30S 05°21' E 011°24'0 0.4
2018-Feb-11 09:00S 05°21' E 011°24'0 0.0
2018-Feb-11 08:30S 05°21' E 011°24'0 0.0
2018-Feb-11 08:00S 05°21' E 011°24'0 0.0
2018-Feb-11 07:30S 05°21' E 011°24'0 0.0
2018-Feb-11 07:00S 05°21' E 011°24'0 0.0
2018-Feb-11 06:30S 05°21' E 011°24'0 0.4
2018-Feb-11 05:56S 05°21' E 011°24'0 0.0
2018-Feb-11 05:30S 05°21' E 011°24'0 0.0
2018-Feb-11 05:00S 05°21' E 011°24'0 0.0
2018-Feb-11 04:30S 05°21' E 011°24'0 0.0
2018-Feb-11 04:00S 05°21' E 011°24'0 0.0
2018-Feb-11 03:19S 05°21' E 011°24'0 0.0
2018-Feb-11 02:58S 05°21' E 011°24'0 0.0
2018-Feb-11 02:30S 05°21' E 011°24'0 0.0
2018-Feb-11 01:59S 05°21' E 011°24'0 0.0
2018-Feb-11 01:30S 05°21' E 011°24'0 0.0
2018-Feb-11 01:00S 05°21' E 011°24'0 0.0
2018-Feb-11 00:30S 05°21' E 011°24'0 0.0
2018-Feb-11 00:00S 05°21' E 011°24'0 0.0
2018-Feb-10 23:30S 05°21' E 011°24'0 0.4
2018-Feb-10 23:00S 05°21' E 011°24'0 0.0
2018-Feb-10 22:30S 05°21' E 011°24'0 0.0
2018-Feb-10 22:00S 05°21' E 011°24'0 0.0
2018-Feb-10 21:30S 05°21' E 011°24'0 0.0
2018-Feb-10 21:00S 05°21' E 011°24'0 0.0
2018-Feb-10 20:30S 05°21' E 011°24'0 0.0
2018-Feb-10 20:00S 05°21' E 011°24'0 0.0
2018-Feb-10 19:30S 05°21' E 011°24'0 0.0
2018-Feb-10 19:00S 05°21' E 011°24'0 0.0
2018-Feb-10 18:30S 05°21' E 011°24'0 0.0
2018-Feb-10 18:00S 05°21' E 011°24'0 0.0
2018-Feb-10 17:30S 05°21' E 011°24'0 0.0
2018-Feb-10 17:00S 05°21' E 011°24'0 0.0
2018-Feb-10 16:30S 05°21' E 011°24'0 0.0
2018-Feb-10 16:00S 05°21' E 011°24'0 0.0
2018-Feb-10 15:30S 05°21' E 011°24'0 0.0
2018-Feb-10 15:00S 05°21' E 011°24'0 0.0
2018-Feb-10 14:30S 05°21' E 011°24'0 0.0
2018-Feb-10 14:00S 05°21' E 011°24'0 0.0
2018-Feb-10 13:30S 05°21' E 011°24'0 0.0
2018-Feb-10 13:00S 05°21' E 011°24'0 0.0
2018-Feb-10 12:30S 05°21' E 011°24'0 0.0
2018-Feb-10 12:00S 05°21' E 011°24'0 0.0
2018-Feb-10 11:31S 05°21' E 011°24'0 0.0
2018-Feb-10 11:00S 05°21' E 011°24'0 0.0
2018-Feb-10 10:30S 05°21' E 011°24'0 0.0
2018-Feb-10 10:00S 05°21' E 011°24'0 0.0
2018-Feb-10 09:28S 05°21' E 011°24'0 0.0
2018-Feb-10 09:00S 05°21' E 011°24'0 0.0
2018-Feb-10 08:30S 05°21' E 011°24'0 0.0
2018-Feb-10 08:01S 05°21' E 011°24'0 0.0
2018-Feb-10 07:30S 05°21' E 011°24'0 0.0
2018-Feb-10 06:58S 05°21' E 011°24'0 0.0
2018-Feb-10 06:28S 05°21' E 011°24'0 0.0
2018-Feb-10 05:58S 05°21' E 011°24'0 0.1
2018-Feb-10 05:29S 05°21' E 011°24'0 0.2
2018-Feb-10 05:00S 05°21' E 011°24'0 0.2
2018-Feb-10 04:30S 05°21' E 011°24'0 0.0
2018-Feb-10 04:00S 05°21' E 011°24'0 0.0
2018-Feb-10 03:30S 05°21' E 011°24'0 0.0
2018-Feb-10 03:00S 05°21' E 011°24'0 0.0
2018-Feb-10 02:31S 05°21' E 011°24'0 0.0
2018-Feb-10 02:00S 05°21' E 011°24'0 0.4
2018-Feb-10 01:30S 05°21' E 011°24'0 0.2
2018-Feb-10 00:59S 05°21' E 011°24'0 0.0
2018-Feb-10 00:30S 05°21' E 011°24'0 0.1
2018-Feb-10 00:00S 05°21' E 011°24'0 0.0
2018-Feb-09 23:30S 05°21' E 011°24'0 0.0
2018-Feb-09 23:00S 05°21' E 011°24'0 0.0
2018-Feb-09 22:45S 05°21' E 011°24'10 0.5
2018-Feb-09 02:30S 05°13' E 011°19'0 0.0
2018-Feb-08 21:00S 05°13' E 011°19'0 0.0
2018-Feb-08 19:00S 05°13' E 011°19'0 0.0
2018-Feb-08 18:00S 05°13' E 011°19'0 0.0
2018-Feb-08 17:30S 05°13' E 011°19'0 0.0
2018-Feb-08 16:30S 05°13' E 011°19'0 0.0
2018-Feb-08 12:00S 05°13' E 011°19'0 0.0
2018-Feb-08 09:00S 05°13' E 011°19'0 0.0
2018-Feb-08 05:00S 05°13' E 011°19'0 0.0
2018-Feb-08 04:00S 05°13' E 011°19'0 0.1
2018-Feb-08 03:00S 05°13' E 011°19'0 0.1
2018-Feb-08 01:30S 05°13' E 011°19'0 0.1
2018-Feb-08 01:01S 05°13' E 011°19'0 0.0
2018-Feb-08 00:30S 05°13' E 011°19'0 0.1
2018-Feb-08 00:00S 05°13' E 011°19'0 0.0
2018-Feb-07 23:29S 05°13' E 011°19'0 0.0
2018-Feb-07 23:00S 05°13' E 011°19'  
Track history (hours):
 
Tides and Currents Weather Stations Pressure Air Temp Water Temp Dewpoint Dewpoint Depression Visibility Wind Speed Wind Dir Waves Ship Positions

Far Sleipner

Last reported at 2018-Feb-17 23:00 UTC. Time now 2018-Feb-17 23:16 UTC.
Position S 05°23' E 011°27'.

Length 143 m; draft 6.8 m.

Type: Ship (hazmat cat A). MMSI: 257794000.

Date/timePositionNaut miles runAvg speedWind from/ knotsBaromVisibWave heightAir tempDewpointWater temp
2018-Feb-17 23:00S 05°23' E 011°27'0 0.0
2018-Feb-17 22:25S 05°23' E 011°27'0 0.0
2018-Feb-17 22:00S 05°23' E 011°27'0 0.0
2018-Feb-17 21:30S 05°23' E 011°27'0 0.0
2018-Feb-17 21:00S 05°23' E 011°27'0 0.0
2018-Feb-17 20:30S 05°23' E 011°27'0 0.0
2018-Feb-17 20:00S 05°23' E 011°27'0 0.0
2018-Feb-17 19:30S 05°23' E 011°27'0 0.0
2018-Feb-17 19:00S 05°23' E 011°27'0 0.0
2018-Feb-17 18:30S 05°23' E 011°27'0 0.0
2018-Feb-17 18:01S 05°23' E 011°27'0 0.0
2018-Feb-17 17:21S 05°23' E 011°27'0 0.0
2018-Feb-17 17:00S 05°23' E 011°27'0 0.0
2018-Feb-17 16:17S 05°23' E 011°27'0 0.0
2018-Feb-17 16:00S 05°23' E 011°27'0 0.0
2018-Feb-17 15:30S 05°23' E 011°27'0 0.2
2018-Feb-17 15:01S 05°23' E 011°26'0 0.3
2018-Feb-17 14:30S 05°23' E 011°26'0 0.4
2018-Feb-17 13:58S 05°23' E 011°26'0 0.5
2018-Feb-17 13:29S 05°23' E 011°26'0 0.4
2018-Feb-17 12:59S 05°23' E 011°26'0 0.1
2018-Feb-17 12:30S 05°23' E 011°26'0 0.0
2018-Feb-17 12:00S 05°23' E 011°26'0 0.0
2018-Feb-17 11:28S 05°23' E 011°26'0 0.0
2018-Feb-17 10:58S 05°23' E 011°26'0 0.0
2018-Feb-17 10:29S 05°23' E 011°26'0 0.0
2018-Feb-17 10:00S 05°23' E 011°26'0 0.0
2018-Feb-17 09:30S 05°23' E 011°26'0 0.0
2018-Feb-17 09:00S 05°23' E 011°26'0 0.0
2018-Feb-17 08:28S 05°23' E 011°26'0 0.0
2018-Feb-17 07:59S 05°23' E 011°26'0 0.0
2018-Feb-17 07:29S 05°23' E 011°26'0 0.1
2018-Feb-17 07:00S 05°23' E 011°26'0 1.0
2018-Feb-17 06:30S 05°23' E 011°26'1 1.3
2018-Feb-17 06:00S 05°23' E 011°26'0 0.4
2018-Feb-17 05:28S 05°23' E 011°26'0 0.0
2018-Feb-17 05:00S 05°23' E 011°26'0 0.0
2018-Feb-17 04:30S 05°23' E 011°26'0 0.0
2018-Feb-17 04:00S 05°23' E 011°26'0 0.0
2018-Feb-17 03:29S 05°23' E 011°26'0 0.1
2018-Feb-17 03:00S 05°23' E 011°26'0 0.0
2018-Feb-17 02:30S 05°23' E 011°26'0 0.0
2018-Feb-17 02:00S 05°23' E 011°26'0 0.1
2018-Feb-17 01:30S 05°23' E 011°26'5 9.0
2018-Feb-17 01:00S 05°20' E 011°23'611.5
2018-Feb-17 00:30S 05°17' E 011°18'5 9.2
2018-Feb-17 00:00S 05°15' E 011°14'0 0.0
2018-Feb-16 23:29S 05°15' E 011°14'0 0.0
2018-Feb-16 23:00S 05°15' E 011°14'0 0.0
2018-Feb-16 22:29S 05°15' E 011°14'0 0.0
2018-Feb-16 22:00S 05°15' E 011°14'0 0.0
2018-Feb-16 21:18S 05°15' E 011°14'0 0.0
2018-Feb-16 20:59S 05°15' E 011°14'0 0.0
2018-Feb-16 20:26S 05°15' E 011°14'0 0.0
2018-Feb-16 19:49S 05°15' E 011°14'0 0.0
2018-Feb-16 19:30S 05°15' E 011°14'0 0.0
2018-Feb-16 19:00S 05°15' E 011°14'0 0.0
2018-Feb-16 18:30S 05°15' E 011°14'0 0.0
2018-Feb-16 18:00S 05°15' E 011°14'0 0.0
2018-Feb-16 17:30S 05°15' E 011°14'0 0.0
2018-Feb-16 17:00S 05°15' E 011°14'0 0.6
2018-Feb-16 16:28S 05°14' E 011°14'612.9
2018-Feb-16 16:00S 05°11' E 011°09'713.3
2018-Feb-16 15:30S 05°08' E 011°03'713.3
2018-Feb-16 15:00S 05°05' E 010°57'31 0.8
2018-Feb-15 02:42S 04°55' E 011°26'211.1
2018-Feb-15 02:30S 04°57' E 011°26'611.2
2018-Feb-15 02:00S 05°03' E 011°26'611.2
2018-Feb-15 01:30S 05°09' E 011°26'611.1
2018-Feb-15 00:58S 05°15' E 011°26'511.0
2018-Feb-15 00:30S 05°20' E 011°25'2 3.6
2018-Feb-14 23:58S 05°21' E 011°24'0 0.0
2018-Feb-14 23:28S 05°21' E 011°24'0 0.1
2018-Feb-14 23:00S 05°21' E 011°24'0 0.3
2018-Feb-14 22:29S 05°21' E 011°24'0 0.1
2018-Feb-14 22:00S 05°21' E 011°24'0 0.1
2018-Feb-14 21:30S 05°21' E 011°24'0 0.0
2018-Feb-14 21:00S 05°21' E 011°24'0 0.2
2018-Feb-14 20:30S 05°21' E 011°24'0 0.2
2018-Feb-14 20:00S 05°21' E 011°24'0 0.0
2018-Feb-14 19:30S 05°21' E 011°24'0 0.8
2018-Feb-14 19:00S 05°21' E 011°24'611.1
2018-Feb-14 18:28S 05°16' E 011°21'2 3.4
2018-Feb-14 18:00S 05°14' E 011°20'0 0.0
2018-Feb-14 17:30S 05°14' E 011°20'0 0.0
2018-Feb-14 17:00S 05°14' E 011°20'0 0.0
2018-Feb-14 16:30S 05°14' E 011°20'0 0.0
2018-Feb-14 15:58S 05°14' E 011°20'0 0.0
2018-Feb-14 15:29S 05°14' E 011°20'0 0.1
2018-Feb-14 15:00S 05°14' E 011°20'0 0.3
2018-Feb-14 14:30S 05°14' E 011°20'0 0.0
2018-Feb-14 13:58S 05°14' E 011°20'0 0.0
2018-Feb-14 13:30S 05°14' E 011°20'0 0.0
2018-Feb-14 13:00S 05°14' E 011°20'0 0.0
2018-Feb-14 12:30S 05°14' E 011°20'0 0.0
2018-Feb-14 12:00S 05°14' E 011°20'0 0.0
2018-Feb-14 11:30S 05°14' E 011°20'0 0.0
2018-Feb-14 11:00S 05°14' E 011°20'0 0.0
2018-Feb-14 10:30S 05°14' E 011°20'0 0.1
2018-Feb-14 10:00S 05°14' E 011°20'0 0.1
2018-Feb-14 09:30S 05°14' E 011°20'0 0.3
2018-Feb-14 09:00S 05°14' E 011°20'0 0.0
2018-Feb-14 08:31S 05°14' E 011°20'0 0.2
2018-Feb-14 08:00S 05°14' E 011°20'0 0.2
2018-Feb-14 07:30S 05°14' E 011°20'0 0.0
2018-Feb-14 07:00S 05°14' E 011°20'0 0.2
2018-Feb-14 06:30S 05°14' E 011°20'0 0.1
2018-Feb-14 06:00S 05°14' E 011°20'0 0.0
2018-Feb-14 05:30S 05°14' E 011°20'0 0.3
2018-Feb-14 05:00S 05°14' E 011°20'0 0.0
2018-Feb-14 04:30S 05°14' E 011°20'0 0.0
2018-Feb-14 04:00S 05°14' E 011°20'0 0.2
2018-Feb-14 03:30S 05°14' E 011°20'0 0.1
2018-Feb-14 03:00S 05°14' E 011°20'0 0.0
2018-Feb-14 02:30S 05°14' E 011°20'0 0.0
2018-Feb-14 02:00S 05°14' E 011°20'0 0.3
2018-Feb-14 01:29S 05°14' E 011°20'0 0.0
2018-Feb-14 00:58S 05°14' E 011°20'0 0.3
2018-Feb-14 00:29S 05°14' E 011°20'0 0.0
2018-Feb-14 00:00S 05°14' E 011°20'0 0.0
2018-Feb-13 23:30S 05°14' E 011°20'0 0.3
2018-Feb-13 22:59S 05°14' E 011°20'0 0.0
2018-Feb-13 22:26S 05°14' E 011°20'0 0.3
2018-Feb-13 22:00S 05°14' E 011°20'0 0.0
2018-Feb-13 21:30S 05°14' E 011°20'0 0.1
2018-Feb-13 20:59S 05°14' E 011°20'0 0.0
2018-Feb-13 20:29S 05°14' E 011°20'0 0.0
2018-Feb-13 19:59S 05°14' E 011°20'0 0.0
2018-Feb-13 19:30S 05°14' E 011°20'0 0.0
2018-Feb-13 18:59S 05°14' E 011°20'0 0.0
2018-Feb-13 18:30S 05°14' E 011°20'0 0.0
2018-Feb-13 18:00S 05°14' E 011°20'0 0.0
2018-Feb-13 17:29S 05°14' E 011°20'0 0.0
2018-Feb-13 16:59S 05°14' E 011°20'0 0.3
2018-Feb-13 16:30S 05°14' E 011°20'0 0.0
2018-Feb-13 16:00S 05°14' E 011°20'0 0.0
2018-Feb-13 15:29S 05°14' E 011°20'0 0.0
2018-Feb-13 15:00S 05°14' E 011°20'0 0.3
2018-Feb-13 14:30S 05°15' E 011°20'611.8
2018-Feb-13 14:00S 05°20' E 011°23'2 3.6
2018-Feb-13 13:30S 05°21' E 011°24'0 0.0
2018-Feb-13 13:00S 05°21' E 011°24'0 0.3
2018-Feb-13 12:28S 05°21' E 011°24'0 0.2
2018-Feb-13 11:55S 05°21' E 011°24'0 0.0
2018-Feb-13 11:30S 05°21' E 011°24'0 0.0
2018-Feb-13 11:00S 05°21' E 011°24'0 0.0
2018-Feb-13 10:30S 05°21' E 011°24'0 0.0
2018-Feb-13 10:00S 05°21' E 011°24'0 0.0
2018-Feb-13 09:30S 05°21' E 011°24'0 0.0
2018-Feb-13 09:00S 05°21' E 011°24'0 0.0
2018-Feb-13 08:30S 05°21' E 011°24'0 0.0
2018-Feb-13 08:00S 05°21' E 011°24'0 0.0
2018-Feb-13 07:29S 05°21' E 011°24'0 0.0
2018-Feb-13 07:00S 05°21' E 011°24'0 0.0
2018-Feb-13 06:31S 05°21' E 011°24'0 0.0
2018-Feb-13 06:00S 05°21' E 011°24'0 0.0
2018-Feb-13 05:30S 05°21' E 011°24'0 0.0
2018-Feb-13 05:00S 05°21' E 011°24'0 0.0
2018-Feb-13 04:30S 05°21' E 011°24'0 0.0
2018-Feb-13 04:00S 05°21' E 011°24'0 0.7
2018-Feb-13 03:30S 05°21' E 011°24'2 4.0
2018-Feb-13 03:00S 05°22' E 011°26'1 1.2
2018-Feb-13 02:28S 05°23' E 011°26'0 0.0
2018-Feb-13 01:57S 05°23' E 011°26'0 0.1
2018-Feb-13 01:30S 05°23' E 011°26'0 0.0
2018-Feb-13 00:58S 05°23' E 011°26'0 0.0
2018-Feb-13 00:30S 05°23' E 011°26'0 0.3
2018-Feb-13 00:00S 05°23' E 011°26'2 2.9
2018-Feb-12 23:28S 05°22' E 011°25'1 2.5
2018-Feb-12 22:59S 05°21' E 011°24'0 0.0
2018-Feb-12 22:30S 05°21' E 011°24'0 0.0
2018-Feb-12 22:00S 05°21' E 011°24'0 0.4
2018-Feb-12 21:30S 05°21' E 011°24'0 0.0
2018-Feb-12 21:00S 05°21' E 011°24'0 0.3
2018-Feb-12 20:30S 05°21' E 011°24'0 0.1
2018-Feb-12 20:00S 05°21' E 011°24'0 0.0
2018-Feb-12 19:30S 05°21' E 011°24'0 0.0
2018-Feb-12 19:00S 05°21' E 011°24'0 0.0
2018-Feb-12 18:30S 05°21' E 011°24'0 0.0
2018-Feb-12 18:00S 05°21' E 011°24'0 0.0
2018-Feb-12 17:30S 05°21' E 011°24'0 0.0
2018-Feb-12 17:00S 05°21' E 011°24'0 0.0
2018-Feb-12 16:30S 05°21' E 011°24'0 0.0
2018-Feb-12 16:00S 05°21' E 011°24'0 0.0
2018-Feb-12 15:30S 05°21' E 011°24'0 0.0
2018-Feb-12 15:00S 05°21' E 011°24'0 0.0
2018-Feb-12 14:30S 05°21' E 011°24'0 0.0
2018-Feb-12 13:58S 05°21' E 011°24'0 0.0
2018-Feb-12 13:28S 05°21' E 011°24'0 0.0
2018-Feb-12 13:00S 05°21' E 011°24'0 0.0
2018-Feb-12 12:30S 05°21' E 011°24'0 0.1
2018-Feb-12 11:59S 05°21' E 011°24'0 0.3
2018-Feb-12 11:29S 05°21' E 011°24'0 0.1
2018-Feb-12 11:00S 05°21' E 011°24'0 0.0
2018-Feb-12 10:30S 05°21' E 011°24'0 0.4
2018-Feb-12 10:00S 05°21' E 011°24'0 0.0
2018-Feb-12 09:30S 05°21' E 011°24'0 0.0
2018-Feb-12 09:00S 05°21' E 011°24'0 0.0
2018-Feb-12 08:30S 05°21' E 011°24'0 0.0
2018-Feb-12 08:00S 05°21' E 011°24'0 0.0
2018-Feb-12 07:29S 05°21' E 011°24'0 0.0
2018-Feb-12 07:00S 05°21' E 011°24'0 0.0
2018-Feb-12 06:30S 05°21' E 011°24'0 0.0
2018-Feb-12 06:00S 05°21' E 011°24'0 0.0
2018-Feb-12 05:30S 05°21' E 011°24'0 0.0
2018-Feb-12 05:00S 05°21' E 011°24'2 3.1
2018-Feb-12 04:30S 05°22' E 011°25'2 3.1
2018-Feb-12 04:00S 05°23' E 011°26'0 0.3
2018-Feb-12 03:22S 05°23' E 011°27'0 0.1
2018-Feb-12 03:00S 05°23' E 011°27'0 0.3
2018-Feb-12 02:30S 05°23' E 011°26'0 0.0
2018-Feb-12 02:00S 05°23' E 011°26'0 0.0
2018-Feb-12 01:30S 05°23' E 011°26'0 0.0
2018-Feb-12 01:00S 05°23' E 011°26'0 0.0
2018-Feb-12 00:30S 05°23' E 011°26'0 0.0
2018-Feb-12 00:00S 05°23' E 011°26'0 0.0
2018-Feb-11 23:30S 05°23' E 011°26'0 0.1
2018-Feb-11 23:00S 05°23' E 011°26'0 0.0
2018-Feb-11 22:30S 05°23' E 011°26'0 0.2
2018-Feb-11 22:00S 05°23' E 011°26'0 0.8
2018-Feb-11 21:28S 05°23' E 011°26'0 0.2
2018-Feb-11 20:59S 05°23' E 011°27'0 0.0
2018-Feb-11 20:30S 05°23' E 011°27'0 0.2
2018-Feb-11 20:00S 05°23' E 011°26'0 0.1
2018-Feb-11 19:30S 05°23' E 011°26'1 1.7
2018-Feb-11 19:00S 05°23' E 011°26'2 4.1
2018-Feb-11 18:30S 05°21' E 011°24'0 0.5
2018-Feb-11 18:00S 05°21' E 011°24'0 0.0
2018-Feb-11 17:30S 05°21' E 011°24'0 0.0
2018-Feb-11 17:00S 05°21' E 011°24'0 0.0
2018-Feb-11 16:30S 05°21' E 011°24'0 0.0
2018-Feb-11 16:00S 05°21' E 011°24'0 0.0
2018-Feb-11 15:30S 05°21' E 011°24'0 0.0
2018-Feb-11 14:59S 05°21' E 011°24'0 0.0
2018-Feb-11 14:30S 05°21' E 011°24'0 0.0
2018-Feb-11 14:00S 05°21' E 011°24'0 0.0
2018-Feb-11 13:30S 05°21' E 011°24'0 0.0
2018-Feb-11 13:00S 05°21' E 011°24'0 0.0
2018-Feb-11 12:30S 05°21' E 011°24'0 0.0
2018-Feb-11 12:00S 05°21' E 011°24'0 0.0
2018-Feb-11 11:30S 05°21' E 011°24'0 0.0
2018-Feb-11 11:00S 05°21' E 011°24'0 0.0
2018-Feb-11 10:28S 05°21' E 011°24'0 0.0
2018-Feb-11 09:58S 05°21' E 011°24'0 0.1
2018-Feb-11 09:30S 05°21' E 011°24'0 0.4
2018-Feb-11 09:00S 05°21' E 011°24'0 0.0
2018-Feb-11 08:30S 05°21' E 011°24'0 0.0
2018-Feb-11 08:00S 05°21' E 011°24'0 0.0
2018-Feb-11 07:30S 05°21' E 011°24'0 0.0
2018-Feb-11 07:00S 05°21' E 011°24'0 0.0
2018-Feb-11 06:30S 05°21' E 011°24'0 0.4
2018-Feb-11 05:56S 05°21' E 011°24'0 0.0
2018-Feb-11 05:30S 05°21' E 011°24'0 0.0
2018-Feb-11 05:00S 05°21' E 011°24'0 0.0
2018-Feb-11 04:30S 05°21' E 011°24'0 0.0
2018-Feb-11 04:00S 05°21' E 011°24'0 0.0
2018-Feb-11 03:19S 05°21' E 011°24'0 0.0
2018-Feb-11 02:58S 05°21' E 011°24'0 0.0
2018-Feb-11 02:30S 05°21' E 011°24'0 0.0
2018-Feb-11 01:59S 05°21' E 011°24'0 0.0
2018-Feb-11 01:30S 05°21' E 011°24'0 0.0
2018-Feb-11 01:00S 05°21' E 011°24'0 0.0
2018-Feb-11 00:30S 05°21' E 011°24'0 0.0
2018-Feb-11 00:00S 05°21' E 011°24'0 0.0
2018-Feb-10 23:30S 05°21' E 011°24'0 0.4
2018-Feb-10 23:00S 05°21' E 011°24'0 0.0
2018-Feb-10 22:30S 05°21' E 011°24'0 0.0
2018-Feb-10 22:00S 05°21' E 011°24'0 0.0
2018-Feb-10 21:30S 05°21' E 011°24'0 0.0
2018-Feb-10 21:00S 05°21' E 011°24'0 0.0
2018-Feb-10 20:30S 05°21' E 011°24'0 0.0
2018-Feb-10 20:00S 05°21' E 011°24'0 0.0
2018-Feb-10 19:30S 05°21' E 011°24'0 0.0
2018-Feb-10 19:00S 05°21' E 011°24'0 0.0
2018-Feb-10 18:30S 05°21' E 011°24'0 0.0
2018-Feb-10 18:00S 05°21' E 011°24'0 0.0
2018-Feb-10 17:30S 05°21' E 011°24'0 0.0
2018-Feb-10 17:00S 05°21' E 011°24'0 0.0
2018-Feb-10 16:30S 05°21' E 011°24'0 0.0
2018-Feb-10 16:00S 05°21' E 011°24'0 0.0
2018-Feb-10 15:30S 05°21' E 011°24'0 0.0
2018-Feb-10 15:00S 05°21' E 011°24'0 0.0
2018-Feb-10 14:30S 05°21' E 011°24'0 0.0
2018-Feb-10 14:00S 05°21' E 011°24'0 0.0
2018-Feb-10 13:30S 05°21' E 011°24'0 0.0
2018-Feb-10 13:00S 05°21' E 011°24'0 0.0
2018-Feb-10 12:30S 05°21' E 011°24'0 0.0
2018-Feb-10 12:00S 05°21' E 011°24'0 0.0
2018-Feb-10 11:31S 05°21' E 011°24'0 0.0
2018-Feb-10 11:00S 05°21' E 011°24'0 0.0
2018-Feb-10 10:30S 05°21' E 011°24'0 0.0
2018-Feb-10 10:00S 05°21' E 011°24'0 0.0
2018-Feb-10 09:28S 05°21' E 011°24'0 0.0
2018-Feb-10 09:00S 05°21' E 011°24'0 0.0
2018-Feb-10 08:30S 05°21' E 011°24'0 0.0
2018-Feb-10 08:01S 05°21' E 011°24'0 0.0
2018-Feb-10 07:30S 05°21' E 011°24'0 0.0
2018-Feb-10 06:58S 05°21' E 011°24'0 0.0
2018-Feb-10 06:28S 05°21' E 011°24'0 0.0
2018-Feb-10 05:58S 05°21' E 011°24'0 0.1
2018-Feb-10 05:29S 05°21' E 011°24'0 0.2
2018-Feb-10 05:00S 05°21' E 011°24'0 0.2
2018-Feb-10 04:30S 05°21' E 011°24'0 0.0
2018-Feb-10 04:00S 05°21' E 011°24'0 0.0
2018-Feb-10 03:30S 05°21' E 011°24'0 0.0
2018-Feb-10 03:00S 05°21' E 011°24'0 0.0
2018-Feb-10 02:31S 05°21' E 011°24'0 0.0
2018-Feb-10 02:00S 05°21' E 011°24'0 0.4
2018-Feb-10 01:30S 05°21' E 011°24'0 0.2
2018-Feb-10 00:59S 05°21' E 011°24'0 0.0
2018-Feb-10 00:30S 05°21' E 011°24'0 0.1
2018-Feb-10 00:00S 05°21' E 011°24'0 0.0
2018-Feb-09 23:30S 05°21' E 011°24'0 0.0
2018-Feb-09 23:00S 05°21' E 011°24'0 0.0
2018-Feb-09 22:45S 05°21' E 011°24'10 0.5
2018-Feb-09 02:30S 05°13' E 011°19'0 0.0
2018-Feb-08 21:00S 05°13' E 011°19'0 0.0
2018-Feb-08 19:00S 05°13' E 011°19'0 0.0
2018-Feb-08 18:00S 05°13' E 011°19'0 0.0
2018-Feb-08 17:30S 05°13' E 011°19'0 0.0
2018-Feb-08 16:30S 05°13' E 011°19'0 0.0
2018-Feb-08 12:00S 05°13' E 011°19'0 0.0
2018-Feb-08 09:00S 05°13' E 011°19'0 0.0
2018-Feb-08 05:00S 05°13' E 011°19'0 0.0
2018-Feb-08 04:00S 05°13' E 011°19'0 0.1
2018-Feb-08 03:00S 05°13' E 011°19'0 0.1
2018-Feb-08 01:30S 05°13' E 011°19'0 0.1
2018-Feb-08 01:01S 05°13' E 011°19'0 0.0
2018-Feb-08 00:30S 05°13' E 011°19'0 0.1
2018-Feb-08 00:00S 05°13' E 011°19'0 0.0
2018-Feb-07 23:29S 05°13' E 011°19'0 0.0
2018-Feb-07 23:00S 05°13' E 011°19'  

Dump ship's entire track history